createdAt,value
2023-01-22T00:01:12.330Z,10.7
2023-01-22T00:06:40.670Z,10.7
2023-01-22T00:12:19.475Z,13.2
2023-01-22T00:18:06.114Z,5.9
2023-01-22T00:23:17.141Z,8.4
2023-01-22T00:28:54.335Z,8.4
2023-01-22T00:34:38.618Z,9.6
2023-01-22T00:40:26.569Z,8.4
2023-01-22T00:45:38.035Z,8.4
2023-01-22T00:51:04.482Z,8.4
2023-01-22T00:56:49.074Z,8.4
2023-01-22T01:02:39.752Z,8.4
2023-01-22T01:08:10.502Z,5.9
2023-01-22T01:13:29.483Z,9.6
2023-01-22T01:18:55.312Z,4.8
2023-01-22T01:24:49.814Z,5.9
2023-01-22T01:30:14.680Z,7.2
2023-01-22T01:35:57.534Z,4.8
2023-01-22T01:41:26.561Z,7.2
2023-01-22T01:46:49.640Z,5.9
2023-01-22T01:52:31.002Z,3.6
2023-01-22T01:57:58.442Z,4.8
2023-01-22T02:03:31.091Z,5.9
2023-01-22T02:09:23.045Z,3.6
2023-01-22T02:14:42.014Z,3.6
2023-01-22T02:20:17.736Z,3.6
2023-01-22T02:25:53.594Z,2.4
2023-01-22T02:31:38.320Z,2.4
2023-01-22T02:36:50.894Z,2.4
2023-01-22T02:42:27.523Z,3.6
2023-01-22T02:48:12.267Z,4.8
2023-01-22T02:53:31.796Z,3.6
2023-01-22T02:59:13.568Z,4.8
2023-01-22T03:04:54.813Z,2.4
2023-01-22T03:10:10.966Z,4.8
2023-01-22T03:16:02.269Z,0
2023-01-22T03:21:23.786Z,0
2023-01-22T03:26:48.825Z,0
2023-01-22T03:32:24.366Z,0
2023-01-22T03:38:15.071Z,0
2023-01-22T03:43:39.890Z,0
2023-01-22T03:49:14.841Z,0
2023-01-22T03:54:31.296Z,0
2023-01-22T04:00:30.406Z,0
2023-01-22T04:05:41.954Z,0
2023-01-22T04:11:21.057Z,0
2023-01-22T04:16:52.764Z,0
2023-01-22T04:22:29.028Z,0
2023-01-22T04:28:14.748Z,0
2023-01-22T04:33:25.650Z,0
2023-01-22T04:38:56.276Z,0
2023-01-22T04:44:47.970Z,2.4
2023-01-22T04:50:25.277Z,0
2023-01-22T04:55:50.686Z,2.4
2023-01-22T05:01:35.570Z,3.6
2023-01-22T05:06:58.872Z,0
2023-01-22T05:12:19.041Z,0
2023-01-22T05:17:45.355Z,0
2023-01-22T05:23:43.986Z,4.8
2023-01-22T05:28:59.796Z,5.9
2023-01-22T05:34:47.452Z,4.8
2023-01-22T05:40:23.284Z,3.6
2023-01-22T05:45:58.872Z,2.4
2023-01-22T05:51:25.264Z,3.6
2023-01-22T05:56:52.155Z,3.6
2023-01-22T06:02:14.358Z,5.9
2023-01-22T06:08:02.093Z,4.8
2023-01-22T06:13:31.837Z,2.4
2023-01-22T06:19:10.696Z,4.8
2023-01-22T06:24:45.247Z,3.6
2023-01-22T06:30:23.186Z,3.6
2023-01-22T06:35:33.982Z,2.4
2023-01-22T06:41:23.748Z,4.8
2023-01-22T06:47:08.050Z,3.6
2023-01-22T06:52:17.775Z,0
2023-01-22T06:57:48.582Z,0
2023-01-22T07:03:27.907Z,0
2023-01-22T07:09:14.918Z,2.4
2023-01-22T07:14:50.697Z,0
2023-01-22T07:20:26.719Z,3.6
2023-01-22T07:25:47.172Z,7.2
2023-01-22T07:31:09.891Z,7.2
2023-01-22T07:36:40.549Z,7.2
2023-01-22T07:42:25.729Z,5.9
2023-01-22T07:48:12.393Z,7.2
2023-01-22T07:53:48.876Z,4.8
2023-01-22T07:59:15.122Z,5.9
2023-01-22T08:04:47.846Z,5.9
2023-01-22T08:10:24.866Z,5.9
2023-01-22T08:15:34.897Z,4.8
2023-01-22T08:21:15.223Z,5.9
2023-01-22T08:26:48.084Z,4.8
2023-01-22T08:32:27.992Z,5.9
2023-01-22T08:38:06.782Z,4.8
2023-01-22T08:43:27.122Z,3.6
2023-01-22T08:49:03.544Z,7.2
2023-01-22T08:54:49.250Z,7.2
2023-01-22T09:00:31.539Z,7.2
2023-01-22T09:05:46.575Z,5.9
2023-01-22T09:11:15.106Z,8.4
2023-01-22T09:17:02.155Z,10.7
2023-01-22T09:22:28.002Z,10.7
2023-01-22T09:28:09.311Z,10.7
2023-01-22T09:33:47.267Z,10.7
2023-01-22T09:39:03.484Z,9.6
2023-01-22T09:44:56.778Z,9.6
2023-01-22T09:50:13.579Z,5.9
2023-01-22T09:55:55.349Z,8.4
2023-01-22T10:01:28.340Z,5.9
2023-01-22T10:07:00.667Z,4.8
2023-01-22T10:12:35.260Z,8.4
2023-01-22T10:18:11.221Z,9.6
2023-01-22T10:23:41.307Z,8.4
2023-01-22T10:29:31.012Z,8.4
2023-01-22T10:34:44.127Z,7.2
2023-01-22T10:40:30.774Z,7.2
2023-01-22T10:46:14.328Z,5.9
2023-01-22T10:51:36.058Z,8.4
2023-01-22T10:57:00.936Z,8.4
2023-01-22T11:02:41.342Z,10.7
2023-01-22T11:08:35.751Z,10.7
2023-01-22T11:13:57.267Z,9.6
2023-01-22T11:19:37.117Z,9.6
2023-01-22T11:24:56.375Z,7.2
2023-01-22T11:30:39.450Z,10.7
2023-01-22T11:36:09.552Z,11.9
2023-01-22T11:41:52.836Z,10.7
2023-01-22T11:47:35.310Z,10.7
2023-01-22T11:53:00.530Z,10.7
2023-01-22T11:58:27.234Z,10.7
2023-01-22T12:04:01.578Z,11.9
2023-01-22T12:09:22.797Z,11.9
2023-01-22T12:15:08.647Z,9.6
2023-01-22T12:20:43.705Z,10.7
2023-01-22T12:26:19.135Z,10.7
2023-01-22T12:31:52.878Z,9.6
2023-01-22T12:37:13.939Z,8.4
2023-01-22T12:43:10.000Z,8.4
2023-01-22T12:48:48.085Z,7.2
2023-01-22T12:54:16.776Z,8.4
2023-01-22T12:59:52.811Z,8.4
2023-01-22T13:05:07.704Z,8.4
2023-01-22T13:11:04.650Z,8.4
2023-01-22T13:16:20.427Z,5.9
2023-01-22T13:21:53.973Z,3.6
2023-01-22T13:27:38.276Z,3.6
2023-01-22T13:33:17.555Z,4.8
2023-01-22T13:38:40.801Z,4.8
2023-01-22T13:44:10.234Z,3.6
2023-01-22T13:49:49.076Z,3.6
2023-01-22T13:55:31.195Z,4.8
2023-01-22T14:01:06.637Z,5.9
2023-01-22T14:06:40.180Z,4.8
2023-01-22T14:11:48.196Z,3.6
2023-01-22T14:17:45.763Z,5.9
2023-01-22T14:23:15.027Z,5.9
2023-01-22T14:28:44.571Z,7.2
2023-01-22T14:34:18.430Z,8.4
2023-01-22T14:39:43.749Z,8.4
2023-01-22T14:45:30.188Z,8.4
2023-01-22T14:50:55.053Z,8.4
2023-01-22T14:56:35.793Z,8.4
2023-01-22T15:02:06.826Z,8.4
2023-01-22T15:07:38.833Z,10.7
2023-01-22T15:13:06.333Z,8.4
2023-01-22T15:18:38.552Z,4.8
2023-01-22T15:24:27.928Z,4.8
2023-01-22T15:29:51.024Z,5.9
2023-01-22T15:35:33.201Z,5.9
2023-01-22T15:41:13.771Z,4.8
2023-01-22T15:46:25.591Z,5.9
2023-01-22T15:51:59.011Z,7.2
2023-01-22T15:57:46.188Z,7.2
2023-01-22T16:03:11.272Z,8.4
2023-01-22T16:08:55.269Z,9.6
2023-01-22T16:14:12.134Z,7.2
2023-01-22T16:20:06.759Z,5.9
2023-01-22T16:25:19.032Z,7.2
2023-01-22T16:31:16.036Z,7.2
2023-01-22T16:36:31.165Z,5.9
2023-01-22T16:42:07.134Z,5.9
2023-01-22T16:47:39.050Z,7.2
2023-01-22T16:53:13.342Z,7.2
2023-01-22T16:59:00.534Z,7.2
2023-01-22T17:04:24.504Z,8.4
2023-01-22T17:09:51.034Z,8.4
2023-01-22T17:15:47.265Z,8.4
2023-01-22T17:21:13.004Z,9.6
2023-01-22T17:26:47.849Z,8.4
2023-01-22T17:32:15.149Z,8.4
2023-01-22T17:38:00.748Z,7.2
2023-01-22T17:43:32.495Z,8.4
2023-01-22T17:48:58.660Z,8.4
2023-01-22T17:54:43.026Z,9.6
2023-01-22T18:00:19.551Z,9.6
2023-01-22T18:05:48.431Z,9.6
2023-01-22T18:11:21.821Z,8.4
2023-01-22T18:16:45.735Z,9.6
2023-01-22T18:22:24.313Z,11.9
2023-01-22T18:27:52.672Z,9.6
2023-01-22T18:33:18.783Z,9.6
2023-01-22T18:38:57.905Z,8.4
2023-01-22T18:44:30.809Z,7.2
2023-01-22T18:50:00.031Z,8.4
2023-01-22T18:56:00.824Z,8.4
2023-01-22T19:01:22.999Z,7.2
2023-01-22T19:06:57.713Z,9.6
2023-01-22T19:12:43.056Z,9.6
2023-01-22T19:18:05.126Z,9.6
2023-01-22T19:23:35.453Z,7.2
2023-01-22T19:29:12.482Z,7.2
2023-01-22T19:34:38.655Z,8.4
2023-01-22T19:40:28.980Z,9.6
2023-01-22T19:46:05.538Z,10.7
2023-01-22T19:51:13.741Z,9.6
2023-01-22T19:57:11.130Z,8.4
2023-01-22T20:02:24.691Z,9.6
2023-01-22T20:07:59.787Z,9.6
2023-01-22T20:13:26.824Z,7.2
2023-01-22T20:19:26.470Z,8.4
2023-01-22T20:24:46.360Z,8.4
2023-01-22T20:30:13.570Z,7.2
2023-01-22T20:36:05.022Z,5.9
2023-01-22T20:41:37.965Z,5.9
2023-01-22T20:47:10.144Z,5.9
2023-01-22T20:52:25.064Z,7.2
2023-01-22T20:58:19.435Z,7.2
2023-01-22T21:03:51.510Z,7.2
2023-01-22T21:09:17.131Z,7.2
2023-01-22T21:14:51.729Z,5.9
2023-01-22T21:20:16.734Z,5.9
2023-01-22T21:26:06.263Z,7.2
2023-01-22T21:31:38.314Z,5.9
2023-01-22T21:36:54.008Z,4.8
2023-01-22T21:42:47.851Z,4.8
2023-01-22T21:48:28.496Z,5.9
2023-01-22T21:53:40.779Z,4.8
2023-01-22T21:59:22.464Z,4.8
2023-01-22T22:05:07.258Z,4.8
2023-01-22T22:10:21.922Z,4.8
2023-01-22T22:16:05.147Z,7.2
2023-01-22T22:21:41.057Z,7.2
2023-01-22T22:32:35.067Z,8.4
2023-01-22T22:38:04.990Z,9.6
2023-01-22T22:43:59.360Z,9.6
2023-01-22T22:49:36.822Z,11.9
2023-01-22T22:54:51.250Z,11.9
2023-01-22T23:00:41.422Z,10.7
2023-01-22T23:05:53.062Z,9.6
2023-01-22T23:11:51.999Z,8.4
2023-01-22T23:17:15.139Z,9.6
2023-01-22T23:22:41.766Z,9.6
2023-01-22T23:28:10.337Z,8.4
2023-01-22T23:33:50.596Z,7.2
2023-01-22T23:39:43.451Z,8.4
2023-01-22T23:45:07.803Z,7.2
2023-01-22T23:50:50.202Z,9.6
2023-01-22T23:56:07.829Z,8.4
